createdAt,value
2018-02-12T08:47:36.957Z,2.17
2018-02-12T08:50:05.366Z,1.70
2018-02-12T08:52:34.449Z,1.33
2018-02-12T08:55:04.557Z,1.87
2018-02-12T08:57:32.934Z,1.93
2018-02-12T09:00:01.581Z,2.13
2018-02-12T09:02:30.745Z,1.57
2018-02-12T09:04:59.125Z,2.20
2018-02-12T09:07:27.571Z,2.20
2018-02-12T09:10:08.006Z,1.60
2018-02-12T09:12:37.131Z,1.53
2018-02-12T09:15:11.634Z,2.10
2018-02-12T09:17:40.133Z,1.90
2018-02-12T09:20:08.652Z,1.83
2018-02-12T09:22:37.129Z,2.27
2018-02-12T09:25:07.071Z,1.87
2018-02-12T09:27:36.307Z,1.97
2018-02-12T09:30:04.893Z,2.30
2018-02-12T09:32:33.381Z,2.53
2018-02-12T09:35:02.518Z,2.70
2018-02-12T09:37:30.988Z,2.87
2018-02-12T09:39:59.446Z,2.50
2018-02-12T09:42:28.014Z,2.73
2018-02-12T09:44:56.400Z,2.40
2018-02-12T09:47:24.768Z,2.40
2018-02-12T09:50:05.863Z,2.17
2018-02-12T09:52:34.247Z,2.10
2018-02-12T09:55:02.852Z,2.50
2018-02-12T09:57:32.101Z,3.90
2018-02-12T10:00:00.609Z,3.77
2018-02-12T10:02:28.938Z,4.27
2018-02-12T10:04:58.200Z,5.13
2018-02-12T10:07:26.582Z,4.80
2018-02-12T10:09:55.636Z,4.57
2018-02-12T10:12:37.648Z,4.00
2018-02-12T10:15:10.722Z,4.00
2018-02-12T10:17:39.049Z,5.33
2018-02-12T10:20:09.120Z,2.93
2018-02-12T10:22:38.744Z,3.33
2018-02-12T10:25:08.136Z,2.70
2018-02-12T10:27:36.710Z,2.33
2018-02-12T10:30:05.086Z,2.30
2018-02-12T10:32:39.948Z,2.20
2018-02-12T10:35:08.530Z,1.90
2018-02-12T10:37:36.998Z,2.30
2018-02-12T10:40:05.485Z,2.13
2018-02-12T10:42:34.343Z,2.70
2018-02-12T10:45:02.838Z,3.47
2018-02-12T10:47:33.161Z,3.30
2018-02-12T10:50:02.290Z,2.63
2018-02-12T10:52:30.834Z,3.83
2018-02-12T10:55:01.098Z,3.07
2018-02-12T10:57:30.655Z,3.67
2018-02-12T10:59:59.075Z,3.80
2018-02-12T11:02:27.528Z,3.90
2018-02-12T11:05:09.833Z,3.37
2018-02-12T11:07:38.623Z,3.47
2018-02-12T11:10:14.001Z,3.43
2018-02-12T11:12:43.198Z,3.90
2018-02-12T11:15:13.067Z,3.80
2018-02-12T11:17:41.472Z,3.73
2018-02-12T11:20:09.935Z,3.30
2018-02-12T11:22:40.528Z,3.37
2018-02-12T11:25:09.777Z,3.53
2018-02-12T11:27:38.212Z,2.63
2018-02-12T11:30:13.156Z,2.93
2018-02-12T11:32:45.313Z,3.30
2018-02-12T11:35:13.957Z,3.47
2018-02-12T11:37:42.796Z,2.97
2018-02-12T11:40:11.309Z,2.90
2018-02-12T11:42:40.727Z,2.77
2018-02-12T11:45:10.101Z,3.57
2018-02-12T11:47:38.594Z,3.57
2018-02-12T11:50:06.980Z,4.53
2018-02-12T11:52:35.797Z,4.50
2018-02-12T11:55:04.948Z,3.80
2018-02-12T11:57:33.324Z,3.00
2018-02-12T12:00:02.264Z,4.03
2018-02-12T12:02:30.897Z,3.70
2018-02-12T12:04:59.375Z,3.20
2018-02-12T12:07:28.700Z,4.23
2018-02-12T12:10:10.982Z,3.53
2018-02-12T12:12:39.568Z,4.10
2018-02-12T12:15:08.563Z,2.83
2018-02-12T12:17:37.004Z,3.37
2018-02-12T12:20:06.915Z,3.67
2018-02-12T12:22:36.253Z,3.93
2018-02-12T12:25:04.731Z,3.40
2018-02-12T12:27:33.313Z,3.87
2018-02-12T12:30:02.543Z,3.27
2018-02-12T12:32:30.946Z,4.20
2018-02-12T12:35:00.195Z,4.40
2018-02-12T12:37:28.738Z,3.13
2018-02-12T12:39:57.976Z,4.23
2018-02-12T12:42:26.379Z,4.03
2018-02-12T12:44:55.344Z,3.30
2018-02-12T12:47:30.362Z,3.87
2018-02-12T12:49:58.857Z,3.40
2018-02-12T12:52:27.383Z,4.30
2018-02-12T12:54:56.641Z,4.63
2018-02-12T12:57:25.557Z,4.47
2018-02-12T12:59:55.013Z,4.40
2018-02-12T13:02:23.560Z,4.47
2018-02-12T13:04:51.994Z,3.90
2018-02-12T13:07:20.358Z,5.20
2018-02-12T13:09:48.864Z,3.63
2018-02-12T13:12:17.237Z,4.23
2018-02-12T13:14:45.576Z,3.50
2018-02-12T13:17:14.749Z,4.67
2018-02-12T13:19:43.113Z,4.17
2018-02-12T13:22:11.443Z,3.50
2018-02-12T13:24:40.574Z,3.13
2018-02-12T13:27:09.146Z,2.60
2018-02-12T13:29:38.870Z,3.87
2018-02-12T13:32:07.955Z,3.87
2018-02-12T13:34:36.615Z,4.73
2018-02-12T13:37:05.042Z,3.47
2018-02-12T13:39:33.753Z,4.43
2018-02-12T13:42:02.950Z,5.07
2018-02-12T13:44:32.282Z,4.50
2018-02-12T13:47:01.530Z,5.60
2018-02-12T13:49:29.907Z,5.17
2018-02-12T13:52:00.401Z,5.03
2018-02-12T13:54:38.213Z,3.50
2018-02-12T13:57:10.299Z,4.27
2018-02-12T13:59:42.095Z,3.97
2018-02-12T14:02:12.549Z,5.07
2018-02-12T14:04:41.139Z,4.10
2018-02-12T14:07:24.010Z,3.50
2018-02-12T14:09:53.559Z,4.97
2018-02-12T14:12:22.316Z,4.70
2018-02-12T14:14:50.936Z,4.27
2018-02-12T14:17:19.326Z,5.53
2018-02-12T14:19:47.891Z,5.33
2018-02-12T14:22:17.865Z,5.27
2018-02-12T14:24:46.393Z,5.67
2018-02-12T14:27:20.095Z,4.93
2018-02-12T14:29:49.691Z,4.90
2018-02-12T14:32:18.100Z,6.33
2018-02-12T14:34:51.095Z,5.30
2018-02-12T14:37:21.520Z,4.80
2018-02-12T14:39:50.385Z,4.50
2018-02-12T14:42:23.061Z,4.83
2018-02-12T14:45:00.963Z,5.30
2018-02-12T14:47:30.732Z,5.03
2018-02-12T14:49:59.879Z,4.50
2018-02-12T14:52:29.576Z,3.70
2018-02-12T14:55:00.041Z,3.87
2018-02-12T14:57:29.444Z,4.87
2018-02-12T14:59:58.712Z,2.50
2018-02-12T15:02:28.039Z,3.20
2018-02-12T15:04:57.019Z,3.53
2018-02-12T15:07:25.508Z,2.80
2018-02-12T15:09:54.043Z,3.40
2018-02-12T15:12:28.430Z,3.07
2018-02-12T15:14:56.896Z,3.87
2018-02-12T15:17:25.682Z,3.27
2018-02-12T15:19:54.876Z,4.93
2018-02-12T15:22:23.443Z,4.17
2018-02-12T15:24:52.124Z,5.83
2018-02-12T15:27:20.830Z,4.93
2018-02-12T15:29:50.895Z,4.40
2018-02-12T15:32:20.230Z,3.57
2018-02-12T15:34:48.809Z,2.90
2018-02-12T15:37:17.812Z,5.10
2018-02-12T15:39:46.275Z,5.00
2018-02-12T15:42:14.765Z,4.70
2018-02-12T15:44:44.217Z,4.47
2018-02-12T15:47:14.305Z,3.50
2018-02-12T15:49:43.993Z,2.90
2018-02-12T15:52:12.640Z,2.47
2018-02-12T15:54:43.528Z,2.13
2018-02-12T15:57:13.172Z,2.93
2018-02-12T15:59:41.704Z,5.80
2018-02-12T16:02:10.148Z,2.83
2018-02-12T16:04:39.581Z,3.77
2018-02-12T16:07:15.754Z,3.40
2018-02-12T16:09:46.466Z,2.90
2018-02-12T16:12:21.205Z,2.80
2018-02-12T16:14:49.873Z,3.13
2018-02-12T16:17:18.749Z,3.23
2018-02-12T16:19:48.691Z,2.70
2018-02-12T16:22:17.722Z,2.93
2018-02-12T16:24:46.510Z,5.00
2018-02-12T16:27:18.242Z,4.47
2018-02-12T16:29:48.789Z,4.03
2018-02-12T16:32:21.620Z,5.93
2018-02-12T16:34:51.083Z,6.83
2018-02-12T16:37:19.634Z,6.30
2018-02-12T16:39:48.423Z,4.17
2018-02-12T16:42:17.927Z,3.63
2018-02-12T16:44:52.968Z,3.27
2018-02-12T16:47:21.383Z,2.87
2018-02-12T16:49:53.724Z,2.77
2018-02-12T16:52:24.364Z,2.70
2018-02-12T16:54:53.960Z,2.90
2018-02-12T16:57:24.070Z,4.60
2018-02-12T16:59:52.601Z,2.90
2018-02-12T17:02:22.667Z,2.40
2018-02-12T17:04:51.785Z,12.13
2018-02-12T17:07:20.573Z,5.30
2018-02-12T17:09:48.972Z,2.80
2018-02-12T17:12:18.163Z,2.70
2018-02-12T17:14:59.616Z,2.37
2018-02-12T17:17:43.190Z,3.37
2018-02-12T17:20:16.659Z,3.40
2018-02-12T17:25:25.413Z,3.50
2018-02-12T17:27:56.255Z,3.83
2018-02-12T17:30:33.950Z,2.77
2018-02-12T17:33:05.565Z,2.90
2018-02-12T17:35:36.235Z,2.40
2018-02-12T17:38:05.203Z,3.20
2018-02-12T17:40:34.270Z,4.00
2018-02-12T17:43:02.980Z,2.10
2018-02-12T17:45:31.387Z,2.30
2018-02-12T17:47:59.807Z,2.10
2018-02-12T17:50:33.541Z,1.97
2018-02-12T17:53:03.059Z,2.30
2018-02-12T17:55:32.042Z,2.40
2018-02-12T17:58:00.662Z,2.50
2018-02-12T18:00:29.180Z,2.20
2018-02-12T18:02:58.504Z,2.03
2018-02-12T18:05:27.083Z,1.47
2018-02-12T18:07:57.931Z,1.60
2018-02-12T18:10:26.504Z,2.27
2018-02-12T18:13:00.722Z,1.73
2018-02-12T18:15:29.121Z,1.63
2018-02-12T18:17:57.853Z,2.57
2018-02-12T18:20:33.861Z,1.43
2018-02-12T18:23:04.711Z,1.80
2018-02-12T18:25:33.683Z,2.00
2018-02-12T18:28:02.995Z,1.43
2018-02-12T18:30:32.303Z,1.30
2018-02-12T18:33:01.008Z,1.70
2018-02-12T18:35:29.848Z,1.70
2018-02-12T18:37:58.180Z,1.80
2018-02-12T18:40:27.455Z,2.10
2018-02-12T18:42:56.076Z,1.53
2018-02-12T18:45:25.538Z,2.20
2018-02-12T18:48:00.346Z,1.57
2018-02-12T18:50:28.720Z,1.87
2018-02-12T18:52:57.969Z,1.47
2018-02-12T18:55:27.355Z,1.57
2018-02-12T18:57:55.807Z,2.50
2018-02-12T19:00:24.285Z,1.83
2018-02-12T19:02:53.309Z,2.10
2018-02-12T19:05:21.649Z,2.57
2018-02-12T19:07:50.371Z,2.27
2018-02-12T19:10:19.870Z,1.70
2018-02-12T19:12:48.285Z,1.50
2018-02-12T19:15:17.469Z,1.63
2018-02-12T19:17:48.154Z,1.70
2018-02-12T19:20:16.537Z,1.47
2018-02-12T19:22:44.917Z,1.70
2018-02-12T19:25:17.830Z,1.80
2018-02-12T19:27:56.761Z,1.80
2018-02-12T19:30:28.968Z,1.57
2018-02-12T19:32:59.376Z,1.47
2018-02-12T19:35:31.982Z,2.57
2018-02-12T19:38:01.402Z,3.87
2018-02-12T19:40:38.323Z,3.83
2018-02-12T19:43:08.110Z,3.90
2018-02-12T19:45:36.938Z,2.10
2018-02-12T19:48:06.380Z,1.40
2018-02-12T19:50:41.193Z,1.70
2018-02-12T19:53:09.565Z,1.30
2018-02-12T19:55:38.779Z,1.00
2018-02-12T19:58:09.045Z,1.03
2018-02-12T20:00:40.127Z,1.63
2018-02-12T20:03:08.680Z,0.97
2018-02-12T20:05:38.129Z,1.40
2018-02-12T20:08:06.619Z,1.60
2018-02-12T20:10:35.164Z,1.63
2018-02-12T20:13:03.610Z,0.60
2018-02-12T20:15:35.128Z,0.80
2018-02-12T20:18:04.636Z,0.80
2018-02-12T20:20:33.349Z,1.23
2018-02-12T20:23:07.218Z,1.27
2018-02-12T20:25:36.829Z,1.37
2018-02-12T20:28:05.317Z,1.50
2018-02-12T20:30:34.175Z,2.10
2018-02-12T20:33:03.113Z,2.30
2018-02-12T20:35:34.092Z,2.03
2018-02-12T20:38:04.618Z,2.27
2018-02-12T20:40:33.298Z,2.00
2018-02-12T20:43:03.134Z,2.07
2018-02-12T20:45:34.575Z,2.23
2018-02-12T20:48:03.216Z,2.10
2018-02-12T20:50:31.904Z,1.37
2018-02-12T20:53:00.474Z,2.90
2018-02-12T20:55:28.943Z,1.90
2018-02-12T20:57:57.738Z,3.70
2018-02-12T21:00:27.139Z,4.33
2018-02-12T21:02:55.539Z,4.37
2018-02-12T21:05:24.222Z,2.60
2018-02-12T21:07:52.737Z,2.60
2018-02-12T21:10:21.931Z,2.90
2018-02-12T21:12:51.186Z,5.73
2018-02-12T21:15:19.607Z,3.90
2018-02-12T21:17:48.856Z,2.40
2018-02-12T21:20:17.635Z,1.77
2018-02-12T21:22:48.473Z,1.90
2018-02-12T21:25:16.985Z,5.33
2018-02-12T21:27:45.438Z,1.20
2018-02-12T21:30:15.896Z,4.27
2018-02-12T21:32:45.879Z,3.00
2018-02-12T21:35:14.262Z,3.27
2018-02-12T21:37:42.715Z,2.00
2018-02-12T21:40:11.935Z,3.47
2018-02-12T21:42:40.466Z,3.70
2018-02-12T21:45:08.814Z,2.20
2018-02-12T21:47:37.422Z,3.50
2018-02-12T21:50:08.138Z,4.77
2018-02-12T21:52:38.759Z,3.27
2018-02-12T21:55:08.463Z,5.07
2018-02-12T21:57:50.168Z,6.87
2018-02-12T22:00:19.475Z,4.97
2018-02-12T22:02:47.954Z,6.60
2018-02-12T22:05:16.528Z,6.67
2018-02-12T22:07:46.751Z,7.13
2018-02-12T22:10:15.125Z,7.53
2018-02-12T22:12:43.749Z,5.70
2018-02-12T22:15:12.408Z,7.23
2018-02-12T22:17:40.848Z,4.27
2018-02-12T22:20:10.252Z,4.60
2018-02-12T22:22:39.018Z,4.77
2018-02-12T22:25:08.066Z,4.13
2018-02-12T22:27:38.172Z,5.50
2018-02-12T22:30:07.828Z,4.90
2018-02-12T22:32:41.726Z,6.63
2018-02-12T22:35:11.041Z,7.27
2018-02-12T22:37:40.277Z,6.27
2018-02-12T22:40:08.959Z,6.80
2018-02-12T22:42:37.441Z,6.30
2018-02-12T22:45:05.922Z,7.00
2018-02-12T22:47:34.334Z,7.03
2018-02-12T22:50:02.827Z,6.30
2018-02-12T22:52:32.947Z,6.40
2018-02-12T22:55:01.903Z,6.37
2018-02-12T22:57:32.213Z,7.73
2018-02-12T23:00:00.970Z,6.70
2018-02-12T23:02:31.246Z,7.13
2018-02-12T23:05:00.507Z,7.90
2018-02-12T23:07:30.558Z,7.73
2018-02-12T23:09:59.152Z,8.10
2018-02-12T23:12:35.094Z,7.40
2018-02-12T23:15:16.970Z,6.63
2018-02-12T23:17:45.678Z,6.93
2018-02-12T23:20:14.151Z,6.23
2018-02-12T23:22:46.214Z,6.63
2018-02-12T23:25:14.712Z,8.07
2018-02-12T23:27:43.486Z,9.00
2018-02-12T23:30:25.064Z,9.23
2018-02-12T23:32:54.371Z,9.30
2018-02-12T23:35:22.885Z,9.13
2018-02-12T23:37:57.671Z,9.40
2018-02-12T23:40:35.076Z,9.20
2018-02-12T23:43:03.577Z,11.50
2018-02-12T23:45:32.124Z,12.37
2018-02-12T23:48:01.504Z,12.80
2018-02-12T23:50:30.016Z,12.03
2018-02-12T23:52:58.492Z,11.47
2018-02-12T23:55:26.907Z,11.50
2018-02-12T23:57:56.274Z,11.33
